METAR Data
IDs: Format: Raw Decoded Include TAF

Data at: 2203 UTC 18 Apr 2021

LROD 182130Z AUTO 23006KT 9999 DZ BKN017/// OVC023/// 07/06 Q1017